createdAt,value
2023-02-02T00:00:33.225Z,1483
2023-02-02T00:05:51.684Z,1482
2023-02-02T00:11:09.664Z,1478
2023-02-02T00:16:28.227Z,1475
2023-02-02T00:21:46.963Z,1473
2023-02-02T00:27:05.362Z,1477
2023-02-02T00:32:23.898Z,1477
2023-02-02T00:37:42.214Z,1476
2023-02-02T00:43:00.119Z,1472
2023-02-02T00:48:18.350Z,1472
2023-02-02T00:53:36.817Z,1472
2023-02-02T00:58:55.333Z,1466
2023-02-02T01:04:13.877Z,1466
2023-02-02T01:09:32.349Z,1470
2023-02-02T01:14:51.142Z,1466
2023-02-02T01:20:09.964Z,1467
2023-02-02T01:25:28.453Z,1457
2023-02-02T01:30:46.833Z,1450
2023-02-02T01:36:05.360Z,1487
2023-02-02T01:41:23.297Z,1508
2023-02-02T01:46:41.605Z,1530
2023-02-02T01:52:00.140Z,1535
2023-02-02T01:57:18.349Z,1536
2023-02-02T02:02:36.895Z,1547
2023-02-02T02:07:55.222Z,1566
2023-02-02T02:13:13.421Z,1586
2023-02-02T02:18:31.355Z,1578
2023-02-02T02:23:49.655Z,1576
2023-02-02T02:29:07.851Z,1572
2023-02-02T02:34:25.857Z,1563
2023-02-02T02:39:44.767Z,1561
2023-02-02T02:45:03.273Z,1569
2023-02-02T02:50:21.455Z,1572
2023-02-02T02:55:40.303Z,1564
2023-02-02T03:00:58.877Z,1561
2023-02-02T03:06:17.332Z,1556
2023-02-02T03:11:35.918Z,1551
2023-02-02T03:22:26.703Z,1542
2023-02-02T03:27:44.941Z,1536
2023-02-02T03:33:03.430Z,1534
2023-02-02T03:38:21.977Z,1523
2023-02-02T03:43:40.460Z,1528
2023-02-02T03:48:59.211Z,1530
2023-02-02T03:54:17.709Z,1517
2023-02-02T03:59:36.241Z,1508
2023-02-02T04:04:54.468Z,1503
2023-02-02T04:10:12.948Z,1500
2023-02-02T04:15:31.478Z,1505
2023-02-02T04:20:49.675Z,1507
2023-02-02T04:26:08.182Z,1500
2023-02-02T04:31:26.459Z,1558
2023-02-02T04:36:45.145Z,1504
2023-02-02T04:42:03.628Z,1470
2023-02-02T04:47:22.131Z,1444
2023-02-02T04:52:40.904Z,1421
2023-02-02T04:57:59.389Z,1423
2023-02-02T05:08:45.702Z,1407
2023-02-02T05:14:03.928Z,1403
2023-02-02T05:19:22.102Z,1391
2023-02-02T05:24:40.729Z,1381
2023-02-02T05:29:59.103Z,1363
2023-02-02T05:35:17.568Z,1353
2023-02-02T05:40:36.197Z,1362
2023-02-02T05:45:54.725Z,1367
2023-02-02T05:51:13.411Z,1358
2023-02-02T05:56:31.560Z,1217
2023-02-02T06:01:49.828Z,1232
2023-02-02T06:07:08.303Z,1241
2023-02-02T06:12:26.590Z,1238
2023-02-02T06:17:44.769Z,1247
2023-02-02T06:23:03.023Z,1243
2023-02-02T06:28:22.048Z,1243
2023-02-02T06:33:40.888Z,1235
2023-02-02T06:38:59.141Z,1234
2023-02-02T06:44:17.688Z,1228
2023-02-02T06:49:35.913Z,1217
2023-02-02T06:54:54.481Z,1222
2023-02-02T07:00:13.083Z,1227
2023-02-02T07:05:31.770Z,1227
2023-02-02T07:11:10.361Z,1214
2023-02-02T07:16:35.904Z,1211
2023-02-02T07:21:57.222Z,1201
2023-02-02T07:27:15.421Z,1198
2023-02-02T07:32:33.919Z,1189
2023-02-02T07:37:52.467Z,1175
2023-02-02T07:43:10.931Z,1164
2023-02-02T07:48:28.951Z,1161
2023-02-02T07:53:47.165Z,1154
2023-02-02T07:59:05.571Z,1148
2023-02-02T08:04:23.832Z,1150
2023-02-02T08:09:42.344Z,1148
2023-02-02T08:15:01.374Z,1146
2023-02-02T08:20:20.135Z,1148
2023-02-02T08:25:38.896Z,1152
2023-02-02T08:30:57.415Z,1142
2023-02-02T08:36:16.323Z,1139
2023-02-02T08:41:35.000Z,1135
2023-02-02T08:46:53.791Z,1128
2023-02-02T08:52:13.260Z,1135
2023-02-02T08:57:32.049Z,1130
2023-02-02T09:02:51.142Z,1136
2023-02-02T09:08:12.455Z,1144
2023-02-02T09:13:30.861Z,1150
2023-02-02T09:18:49.430Z,1153
2023-02-02T09:24:08.121Z,1156
2023-02-02T09:29:27.247Z,1148
2023-02-02T09:34:45.901Z,1128
2023-02-02T09:40:04.411Z,1111
2023-02-02T09:45:23.269Z,1104
2023-02-02T09:50:42.733Z,1088
2023-02-02T09:56:01.283Z,1076
2023-02-02T10:01:19.790Z,1064
2023-02-02T10:06:38.436Z,1058
2023-02-02T10:11:57.435Z,1047
2023-02-02T10:17:15.719Z,1035
2023-02-02T10:22:34.480Z,1020
2023-02-02T10:27:53.035Z,1009
2023-02-02T10:33:11.704Z,1008
2023-02-02T10:38:30.525Z,1003
2023-02-02T10:43:48.910Z,1003
2023-02-02T10:49:07.787Z,999
2023-02-02T10:54:26.543Z,1001
2023-02-02T10:59:45.325Z,987
2023-02-02T11:05:04.065Z,984
2023-02-02T11:10:22.878Z,977
2023-02-02T11:15:42.948Z,972
2023-02-02T11:21:01.315Z,973
2023-02-02T11:26:19.516Z,970
2023-02-02T11:31:38.578Z,961
2023-02-02T11:36:57.275Z,949
2023-02-02T11:42:15.802Z,947
2023-02-02T11:47:34.116Z,944
2023-02-02T11:52:52.494Z,938
2023-02-02T11:58:12.116Z,929
2023-02-02T12:03:30.758Z,915
2023-02-02T12:08:49.487Z,912
2023-02-02T12:14:08.202Z,908
2023-02-02T12:19:26.886Z,907
2023-02-02T12:24:45.432Z,898
2023-02-02T12:30:03.935Z,893
2023-02-02T12:35:22.453Z,893
2023-02-02T12:40:41.055Z,884
2023-02-02T12:45:59.655Z,890
2023-02-02T12:51:21.215Z,888
2023-02-02T12:56:39.677Z,885
2023-02-02T13:01:58.650Z,882
2023-02-02T13:07:17.156Z,883
2023-02-02T13:12:35.318Z,881
2023-02-02T13:17:54.113Z,874
2023-02-02T13:23:12.894Z,870
2023-02-02T13:28:31.424Z,863
2023-02-02T13:33:49.682Z,866
2023-02-02T13:39:07.940Z,848
2023-02-02T13:44:26.758Z,844
2023-02-02T13:49:45.538Z,837
2023-02-02T13:55:03.784Z,824
2023-02-02T14:00:21.699Z,818
2023-02-02T14:05:40.446Z,814
2023-02-02T14:10:58.736Z,813
2023-02-02T14:16:17.282Z,801
2023-02-02T14:21:36.626Z,797
2023-02-02T14:26:55.235Z,792
2023-02-02T14:32:13.808Z,734
2023-02-02T14:37:32.558Z,701
2023-02-02T14:42:51.215Z,713
2023-02-02T14:48:09.462Z,729
2023-02-02T14:53:27.994Z,761
2023-02-02T14:58:46.772Z,786
2023-02-02T15:04:05.538Z,792
2023-02-02T15:09:24.014Z,797
2023-02-02T15:14:43.915Z,811
2023-02-02T15:20:02.129Z,844
2023-02-02T15:25:22.258Z,848
2023-02-02T15:30:40.971Z,840
2023-02-02T15:35:59.363Z,831
2023-02-02T15:41:19.206Z,821
2023-02-02T15:46:37.720Z,820
2023-02-02T15:51:56.270Z,821
2023-02-02T15:57:14.453Z,815
2023-02-02T16:02:32.708Z,811
2023-02-02T16:07:59.819Z,813
2023-02-02T16:13:24.608Z,819
2023-02-02T16:18:43.451Z,837
2023-02-02T16:24:01.707Z,886
2023-02-02T16:29:04.825Z,916
2023-02-02T16:34:23.402Z,925
2023-02-02T16:39:41.715Z,922
2023-02-02T16:45:00.551Z,910
2023-02-02T16:50:18.849Z,902
2023-02-02T16:55:49.726Z,900
2023-02-02T17:01:15.748Z,902
2023-02-02T17:06:46.108Z,904
2023-02-02T17:12:16.833Z,901
2023-02-02T17:17:53.411Z,899
2023-02-02T17:23:11.910Z,903
2023-02-02T17:28:30.171Z,904
2023-02-02T17:33:48.667Z,901
2023-02-02T17:39:07.164Z,904
2023-02-02T17:44:14.096Z,899
2023-02-02T17:49:32.738Z,893
2023-02-02T17:54:51.119Z,886
2023-02-02T18:00:09.339Z,882
2023-02-02T18:05:28.223Z,889
2023-02-02T18:10:47.034Z,869
2023-02-02T18:16:05.565Z,849
2023-02-02T18:21:24.160Z,835
2023-02-02T18:26:42.674Z,918
2023-02-02T18:32:01.130Z,841
2023-02-02T18:37:19.578Z,813
2023-02-02T18:42:37.882Z,803
2023-02-02T18:47:56.087Z,816
2023-02-02T18:53:14.615Z,819
2023-02-02T18:58:33.142Z,835
2023-02-02T19:03:57.054Z,842
2023-02-02T19:09:15.628Z,855
2023-02-02T19:14:34.506Z,867
2023-02-02T19:19:52.454Z,878
2023-02-02T19:25:11.189Z,891
2023-02-02T19:30:32.242Z,899
2023-02-02T19:35:54.106Z,908
2023-02-02T19:41:12.725Z,912
2023-02-02T19:46:31.425Z,923
2023-02-02T19:51:49.725Z,932
2023-02-02T19:57:07.946Z,936
2023-02-02T20:02:27.023Z,950
2023-02-02T20:07:44.943Z,958
2023-02-02T20:13:03.716Z,963
2023-02-02T20:18:22.280Z,964
2023-02-02T20:23:41.005Z,973
2023-02-02T20:28:59.704Z,980
2023-02-02T20:34:17.978Z,981
2023-02-02T20:39:36.777Z,980
2023-02-02T20:44:54.998Z,981
2023-02-02T20:50:13.492Z,975
2023-02-02T20:55:31.454Z,980
2023-02-02T21:00:49.986Z,980
2023-02-02T21:06:08.136Z,988
2023-02-02T21:11:26.023Z,994
2023-02-02T21:16:44.632Z,1003
2023-02-02T21:22:03.487Z,1005
2023-02-02T21:27:21.781Z,1024
2023-02-02T21:32:40.462Z,1111
2023-02-02T21:37:58.767Z,1103
2023-02-02T21:43:17.716Z,1136
2023-02-02T21:48:36.205Z,1197
2023-02-02T21:53:54.587Z,1232
2023-02-02T21:59:13.299Z,1245
2023-02-02T22:04:32.083Z,1276
2023-02-02T22:09:51.370Z,1279
2023-02-02T22:15:09.616Z,1281
2023-02-02T22:20:28.232Z,1294
2023-02-02T22:25:47.023Z,1308
2023-02-02T22:31:05.444Z,1317
2023-02-02T22:36:24.344Z,1329
2023-02-02T22:41:42.842Z,1337
2023-02-02T22:47:01.399Z,1336
2023-02-02T22:52:19.968Z,1332
2023-02-02T22:57:38.497Z,1343
2023-02-02T23:02:57.053Z,1345
2023-02-02T23:08:15.779Z,1339
2023-02-02T23:13:33.984Z,1322
2023-02-02T23:18:51.891Z,1326
2023-02-02T23:24:10.698Z,1356
2023-02-02T23:29:29.463Z,1353
2023-02-02T23:34:32.320Z,1338
2023-02-02T23:39:51.101Z,1309
2023-02-02T23:45:09.378Z,1311
2023-02-02T23:50:28.196Z,1310
2023-02-02T23:55:47.397Z,1318
